Time;durP1;ratioP1;P1;durP2;ratioP2;P2;SDS_P1;SDS_P2;PMS_P1;PMS_P2;Temp;Humidity;BMP_temperature;BMP_pressure;BME280_temperature;BME280_humidity;BME280_pressure;Samples;Min_cycle;Max_cycle;Signal;HPM_P1;HPM_P2
2023/12/31 00:01:04;;;;;;;5.03;3.57;;;7.20;77.20;;;9.01;55.97;97132.97;5030950;28;20048;-60
2023/12/31 00:03:31;;;;;;;4.83;3.53;;;7.20;77.10;;;9.01;56.42;97128.50;5029730;28;20408;-60
2023/12/31 00:05:59;;;;;;;6.27;3.60;;;7.20;76.90;;;9.00;56.29;97124.19;5030514;28;20041;-60
2023/12/31 00:08:26;;;;;;;4.57;3.13;;;7.20;76.80;;;9.00;56.31;97120.72;5031267;28;20068;-61
2023/12/31 00:10:54;;;;;;;4.47;3.57;;;7.20;77.00;;;9.00;56.30;97118.06;5030948;28;20537;-60
2023/12/31 00:13:21;;;;;;;6.63;4.07;;;7.20;77.00;;;8.99;56.46;97113.72;5031029;28;20405;-60
2023/12/31 00:15:49;;;;;;;6.10;4.60;;;7.20;76.70;;;8.93;56.39;97109.91;5029885;28;20409;-60
2023/12/31 00:18:17;;;;;;;7.33;4.97;;;7.20;76.80;;;8.91;56.31;97095.97;5030767;28;20045;-61
2023/12/31 00:20:44;;;;;;;6.33;4.73;;;7.10;76.80;;;8.89;56.17;97095.31;5030778;28;20409;-60
2023/12/31 00:23:13;;;;;;;7.30;5.17;;;7.10;76.80;;;8.87;56.26;97095.47;5030734;28;20515;-60
2023/12/31 00:25:41;;;;;;;6.57;5.17;;;7.00;76.70;;;8.83;56.25;97086.16;5029912;28;20049;-60
2023/12/31 00:28:09;;;;;;;6.10;5.50;;;7.00;77.00;;;8.78;56.29;97087.66;5029829;28;20041;-60
2023/12/31 00:30:37;;;;;;;9.97;6.00;;;6.90;76.90;;;8.73;56.05;97077.53;5030240;28;20045;-60
2023/12/31 00:33:04;;;;;;;7.43;5.10;;;6.90;77.00;;;8.69;56.02;97073.56;5028624;28;20049;-60
2023/12/31 00:35:33;;;;;;;6.97;4.77;;;6.80;77.00;;;8.63;56.05;97069.72;5030917;28;20041;-60
2023/12/31 00:38:00;;;;;;;7.40;4.90;;;6.70;77.20;;;8.57;56.28;97058.91;5012928;28;20042;-60
2023/12/31 00:40:30;;;;;;;5.10;4.53;;;6.70;77.50;;;8.54;55.98;97061.91;5028555;28;20049;-60
2023/12/31 00:42:57;;;;;;;8.80;4.97;;;6.60;77.10;;;8.48;56.31;97058.91;5029128;28;20505;-60
2023/12/31 00:45:25;;;;;;;7.63;5.33;;;6.50;77.30;;;8.43;56.18;97053.28;5030161;28;20497;-60
2023/12/31 00:47:53;;;;;;;7.40;5.03;;;6.50;77.60;;;8.40;56.10;97052.72;5028597;28;20049;-60
2023/12/31 00:50:21;;;;;;;9.77;7.13;;;6.40;77.80;;;8.36;56.31;97054.06;5030687;28;20041;-60
2023/12/31 00:52:48;;;;;;;10.23;7.17;;;6.40;78.30;;;8.36;56.35;97051.41;5028999;28;20046;-60
2023/12/31 00:55:16;;;;;;;8.57;5.90;;;6.40;78.30;;;8.35;56.36;97049.72;5021858;28;20057;-60
2023/12/31 00:57:44;;;;;;;8.27;6.23;;;6.40;78.20;;;8.30;56.32;97036.97;5029414;28;20053;-60
2023/12/31 01:00:13;;;;;;;10.87;7.33;;;6.40;78.30;;;8.28;56.73;97041.59;5030193;28;20033;-60
2023/12/31 01:02:40;;;;;;;12.40;6.90;;;6.40;78.60;;;8.26;56.56;97041.75;5029312;28;20046;-60
2023/12/31 01:05:08;;;;;;;9.80;6.57;;;6.40;78.30;;;8.23;56.79;97047.38;5030507;28;20038;-62
2023/12/31 01:07:36;;;;;;;9.87;6.43;;;6.40;78.40;;;8.21;56.23;97044.03;5029601;28;20049;-61
2023/12/31 01:10:04;;;;;;;9.90;5.93;;;6.30;78.40;;;8.19;56.54;97030.13;5028854;28;20060;-62
2023/12/31 01:12:33;;;;;;;6.53;5.37;;;6.30;78.40;;;8.16;56.57;97024.31;5028495;28;20060;-62
2023/12/31 01:15:01;;;;;;;6.63;5.10;;;6.30;78.60;;;8.16;56.49;97019.00;5030650;28;20061;-62
2023/12/31 01:17:30;;;;;;;8.47;5.67;;;6.30;78.60;;;8.16;56.78;97024.31;5012609;28;20045;-62
2023/12/31 01:19:57;;;;;;;6.83;4.67;;;6.30;78.40;;;8.12;56.70;97028.28;5030063;28;20045;-62
2023/12/31 01:22:25;;;;;;;7.07;5.27;;;6.30;78.60;;;8.08;56.58;97025.97;5029028;28;20050;-62
2023/12/31 01:24:53;;;;;;;7.30;4.47;;;6.20;78.30;;;8.06;56.67;97016.47;5030384;28;20038;-62
2023/12/31 01:27:21;;;;;;;7.37;4.83;;;6.20;78.50;;;8.01;56.96;97011.69;5028476;28;20543;-60
2023/12/31 01:29:49;;;;;;;6.87;4.23;;;6.10;79.30;;;7.98;57.05;97001.38;5028102;28;20042;-60
2023/12/31 01:32:16;;;;;;;6.00;3.90;;;6.20;79.50;;;7.98;57.27;97005.88;5029035;28;20049;-60
2023/12/31 01:34:44;;;;;;;5.47;4.47;;;6.20;79.80;;;7.99;57.38;96999.59;5032019;28;20044;-60
2023/12/31 01:37:12;;;;;;;6.37;4.50;;;6.30;80.10;;;7.99;57.64;96989.81;5032641;28;20052;-60
2023/12/31 01:39:40;;;;;;;8.57;4.93;;;6.30;80.30;;;8.00;57.62;96974.72;5033635;28;20517;-60
2023/12/31 01:42:07;;;;;;;5.83;3.43;;;6.30;80.30;;;8.02;57.92;96972.72;5032638;28;20048;-59
2023/12/31 01:44:35;;;;;;;5.53;3.80;;;6.30;80.10;;;8.05;58.28;96972.44;5032577;28;20053;-60
2023/12/31 01:47:04;;;;;;;4.03;2.93;;;6.30;80.10;;;8.09;57.92;96963.97;5032277;28;20041;-60
2023/12/31 01:49:33;;;;;;;5.23;3.30;;;6.40;79.90;;;8.13;58.04;96953.06;5032174;28;20049;-64
2023/12/31 01:52:01;;;;;;;5.20;3.50;;;6.40;79.80;;;8.17;57.91;96946.44;5032115;28;20417;-60
2023/12/31 01:54:29;;;;;;;4.83;3.37;;;6.50;79.60;;;8.18;57.83;96946.28;5032339;28;20049;-60
2023/12/31 01:56:58;;;;;;;5.17;3.70;;;6.50;79.40;;;8.23;57.91;96951.91;5015978;28;20049;-60
2023/12/31 01:59:26;;;;;;;4.73;3.80;;;6.60;79.00;;;8.25;58.09;96955.22;5014862;28;20037;-60
2023/12/31 02:01:54;;;;;;;4.37;3.30;;;6.60;78.80;;;8.27;57.77;96961.19;5015671;28;20409;-60
2023/12/31 02:04:35;;;;;;;4.87;3.37;;;6.60;78.60;;;8.29;57.77;96955.72;5008629;28;20417;-60
2023/12/31 02:07:03;;;;;;;5.40;3.37;;;6.60;79.00;;;8.31;58.09;96939.66;5033029;28;20045;-60
2023/12/31 02:09:30;;;;;;;4.97;3.10;;;6.60;78.80;;;8.36;57.96;96932.03;5032895;28;20045;-61
2023/12/31 02:11:59;;;;;;;3.23;2.77;;;6.70;79.00;;;8.39;58.07;96921.09;5014953;28;20064;-60
2023/12/31 02:14:27;;;;;;;4.37;3.13;;;6.80;78.70;;;8.46;58.02;96927.44;5031879;28;20501;-60
2023/12/31 02:16:54;;;;;;;6.43;3.20;;;6.80;78.00;;;8.50;57.83;96933.25;5033218;28;20041;-60
2023/12/31 02:19:24;;;;;;;5.13;3.30;;;6.90;77.90;;;8.51;57.86;96925.13;5031335;28;20361;-60
2023/12/31 02:21:51;;;;;;;3.70;2.90;;;6.90;77.50;;;8.50;57.83;96925.28;5031752;28;20042;-60
2023/12/31 02:24:20;;;;;;;4.57;2.73;;;6.90;77.50;;;8.55;57.81;96918.50;5031221;28;20054;-60
2023/12/31 02:26:48;;;;;;;5.07;3.17;;;6.90;77.20;;;8.59;57.78;96919.81;5033191;28;20049;-60
2023/12/31 02:29:15;;;;;;;3.47;2.67;;;7.00;77.00;;;8.63;57.68;96912.34;5032423;28;20057;-60
2023/12/31 02:31:43;;;;;;;3.57;2.33;;;7.00;76.20;;;8.63;57.65;96907.88;5014413;28;20049;-60
2023/12/31 02:34:11;;;;;;;5.20;2.70;;;7.10;76.20;;;8.67;57.64;96898.56;5014044;28;20046;-60
2023/12/31 02:36:39;;;;;;;3.77;2.73;;;7.10;76.30;;;8.75;57.46;96888.94;5031614;28;20049;-60
2023/12/31 02:39:06;;;;;;;3.17;2.40;;;7.20;75.50;;;8.79;57.19;96888.44;5031050;28;20052;-60
2023/12/31 02:41:34;;;;;;;5.17;2.60;;;7.20;75.90;;;8.87;57.27;96879.63;5031009;28;20042;-60
2023/12/31 02:44:02;;;;;;;4.43;2.63;;;7.30;75.80;;;8.95;57.19;96873.47;5030887;28;20064;-60
2023/12/31 02:46:29;;;;;;;3.63;2.47;;;7.30;75.40;;;8.99;57.04;96875.59;5030222;28;20045;-60
2023/12/31 02:48:57;;;;;;;4.20;2.93;;;7.40;75.10;;;9.05;57.03;96861.69;5031129;28;20060;-60
2023/12/31 02:51:25;;;;;;;5.67;3.00;;;7.50;75.00;;;9.10;56.85;96850.53;5030925;28;20049;-60
2023/12/31 02:53:53;;;;;;;5.73;3.77;;;7.50;74.80;;;9.16;56.99;96857.00;5030988;28;20049;-60
2023/12/31 02:56:21;;;;;;;4.10;3.10;;;7.50;74.90;;;9.18;56.72;96853.16;5030963;28;20515;-60
2023/12/31 02:58:49;;;;;;;4.40;2.63;;;7.60;74.20;;;9.19;56.62;96840.69;5030901;28;20056;-60
2023/12/31 03:01:16;;;;;;;4.50;3.00;;;7.50;74.40;;;9.21;56.41;96836.88;5030978;28;20056;-60
2023/12/31 03:03:44;;;;;;;5.60;3.20;;;7.50;74.50;;;9.19;56.53;96836.22;5030595;28;20053;-60
2023/12/31 03:06:16;;;;;;;3.93;3.03;;;7.50;74.70;;;9.17;56.32;96835.56;5030674;28;20069;-60
2023/12/31 03:08:43;;;;;;;5.60;3.47;;;7.40;74.10;;;9.15;56.12;96818.13;5030123;28;20060;-60
2023/12/31 03:11:12;;;;;;;4.37;3.37;;;7.40;74.80;;;9.15;56.05;96818.13;5031892;28;20061;-60
2023/12/31 03:13:40;;;;;;;4.27;3.57;;;7.40;74.60;;;9.13;56.12;96812.19;5030153;28;20049;-60
2023/12/31 03:16:07;;;;;;;6.07;3.70;;;7.30;75.10;;;9.15;56.27;96800.41;5030548;28;20496;-60
2023/12/31 03:18:35;;;;;;;4.17;2.50;;;7.40;75.20;;;9.18;56.12;96800.03;5031744;28;20045;-61
2023/12/31 03:21:03;;;;;;;5.13;2.87;;;7.40;74.70;;;9.21;56.13;96810.31;5022708;28;20064;-61
2023/12/31 03:23:31;;;;;;;7.67;2.90;;;7.40;74.10;;;9.18;56.19;96804.53;5030354;28;20048;-60
2023/12/31 03:25:58;;;;;;;4.40;3.10;;;7.40;74.30;;;9.14;56.05;96801.38;5030621;28;20425;-59
2023/12/31 03:28:26;;;;;;;3.27;2.50;;;7.40;74.20;;;9.16;56.04;96794.06;5030198;28;20497;-60
2023/12/31 03:30:53;;;;;;;4.63;2.47;;;7.40;74.60;;;9.19;55.97;96783.13;5031321;28;20409;-60
2023/12/31 03:33:21;;;;;;;4.77;2.90;;;7.50;74.10;;;9.22;55.75;96787.25;5028913;28;20049;-60
2023/12/31 03:35:49;;;;;;;4.33;2.93;;;7.50;73.70;;;9.25;55.87;96792.22;5030270;28;20045;-60
2023/12/31 03:38:18;;;;;;;4.47;3.03;;;7.60;73.60;;;9.27;55.80;96783.06;5031450;28;20053;-60
2023/12/31 03:40:45;;;;;;;4.87;3.10;;;7.60;73.00;;;9.22;55.66;96781.94;5029813;28;20041;-60
2023/12/31 03:43:13;;;;;;;3.93;3.10;;;7.50;73.00;;;9.21;55.73;96777.66;5031062;28;20393;-60
2023/12/31 03:45:41;;;;;;;4.53;3.00;;;7.50;73.10;;;9.17;55.53;96771.00;5031273;28;20043;-60
2023/12/31 03:48:08;;;;;;;5.93;3.43;;;7.40;73.10;;;9.17;55.60;96771.84;5030259;28;20417;-60
2023/12/31 03:50:36;;;;;;;4.73;2.90;;;7.50;73.40;;;9.17;55.74;96760.38;5029767;28;20516;-60
2023/12/31 03:53:04;;;;;;;4.33;3.03;;;7.40;73.10;;;9.14;55.45;96763.41;5031428;28;20052;-60
2023/12/31 03:55:33;;;;;;;5.50;3.43;;;7.40;73.60;;;9.13;55.39;96754.59;5030124;28;20057;-60
2023/12/31 03:58:01;;;;;;;4.33;3.13;;;7.40;72.60;;;9.06;55.48;96756.28;5029490;28;20090;-60
2023/12/31 04:00:29;;;;;;;4.20;2.80;;;7.30;72.80;;;9.03;55.48;96752.16;5031878;28;20041;-60
2023/12/31 04:02:57;;;;;;;5.03;2.90;;;7.30;73.40;;;9.06;55.51;96753.63;5030059;28;20046;-60
2023/12/31 04:05:24;;;;;;;4.20;2.83;;;7.40;73.00;;;9.06;55.40;96743.03;5029460;28;20049;-60
2023/12/31 04:07:52;;;;;;;4.37;2.80;;;7.40;72.20;;;9.07;55.50;96736.69;5031045;28;20037;-60
2023/12/31 04:10:20;;;;;;;3.07;2.30;;;7.50;72.60;;;9.04;55.16;96729.09;5012781;28;20050;-60
2023/12/31 04:12:48;;;;;;;3.63;2.73;;;7.40;72.20;;;9.02;55.15;96734.56;5031134;28;20060;-60
2023/12/31 04:15:16;;;;;;;3.73;2.43;;;7.40;72.40;;;9.07;55.26;96713.66;5031009;28;20052;-60
2023/12/31 04:17:44;;;;;;;2.83;2.27;;;7.40;72.40;;;9.02;55.04;96718.63;5029791;28;20052;-60
2023/12/31 04:20:12;;;;;;;4.73;2.70;;;7.40;71.30;;;9.00;55.07;96718.00;5029462;28;20427;-60
2023/12/31 04:22:40;;;;;;;3.13;2.13;;;7.40;71.50;;;8.96;55.12;96702.59;5029073;28;20046;-60
2023/12/31 04:25:08;;;;;;;3.40;2.40;;;7.40;71.80;;;9.00;54.81;96701.25;5029859;28;20045;-60
2023/12/31 04:27:38;;;;;;;2.73;2.33;;;7.40;71.40;;;9.00;54.78;96701.25;5020197;28;20086;-60
2023/12/31 04:30:07;;;;;;;3.60;2.40;;;7.40;71.30;;;9.00;54.58;96696.75;5029054;28;20069;-60
2023/12/31 04:32:35;;;;;;;3.27;2.30;;;7.50;70.70;;;8.99;54.77;96694.25;5030656;28;20041;-60
2023/12/31 04:35:06;;;;;;;3.07;2.30;;;7.40;71.60;;;9.03;54.86;96699.06;5030356;28;20045;-60
2023/12/31 04:37:34;;;;;;;4.63;2.70;;;7.40;70.50;;;9.03;54.75;96685.78;5029417;28;20042;-60
2023/12/31 04:40:03;;;;;;;5.07;2.60;;;7.40;70.20;;;9.12;54.49;96693.69;5030172;28;20045;-60
2023/12/31 04:42:31;;;;;;;3.43;2.27;;;7.50;70.20;;;9.11;54.51;96692.03;5029260;28;20056;-60
2023/12/31 04:45:04;;;;;;;3.33;2.17;;;7.50;70.30;;;9.14;54.24;96694.34;5029354;28;20045;-60
2023/12/31 04:47:35;;;;;;;3.63;2.20;;;7.50;69.90;;;9.18;54.37;96675.22;5029330;28;20513;-60
2023/12/31 04:50:05;;;;;;;3.70;2.20;;;7.60;70.30;;;9.21;54.15;96671.41;5029032;28;20049;-60
2023/12/31 04:52:33;;;;;;;2.77;2.00;;;7.60;69.50;;;9.21;54.04;96674.88;5030215;28;20046;-60
2023/12/31 04:55:01;;;;;;;3.43;2.43;;;7.60;69.50;;;9.21;53.80;96674.88;5030488;28;20045;-60
2023/12/31 04:57:28;;;;;;;3.80;2.40;;;7.60;69.90;;;9.18;53.76;96666.44;5028934;28;20505;-60
2023/12/31 04:59:56;;;;;;;2.40;1.80;;;7.60;69.40;;;9.18;53.66;96674.41;5028979;28;20445;-60
2023/12/31 05:02:25;;;;;;;2.43;2.00;;;7.60;69.40;;;9.21;53.80;96674.06;5029233;28;20072;-60
2023/12/31 05:04:52;;;;;;;3.57;1.97;;;7.60;69.30;;;9.22;53.76;96683.66;5030345;28;20038;-60
2023/12/31 05:07:20;;;;;;;3.17;1.70;;;7.60;69.90;;;9.23;53.62;96675.53;5029063;28;20041;-60
2023/12/31 05:09:48;;;;;;;3.47;2.07;;;7.70;68.00;;;9.26;53.77;96667.19;5030545;28;20064;-60
2023/12/31 05:12:16;;;;;;;5.00;2.30;;;7.60;69.00;;;9.26;53.59;96671.69;5034157;28;20394;-60
2023/12/31 05:14:44;;;;;;;4.77;2.57;;;7.60;68.50;;;9.24;53.44;96677.16;5035011;28;20497;-60
2023/12/31 05:17:12;;;;;;;3.23;2.03;;;7.60;68.90;;;9.26;53.49;96675.16;5033604;28;20072;-61
2023/12/31 05:19:40;;;;;;;2.90;2.57;;;7.60;68.70;;;9.25;53.28;96678.03;5033987;28;20405;-61
2023/12/31 05:22:08;;;;;;;3.67;1.93;;;7.50;69.10;;;9.23;53.32;96662.25;5033804;28;20046;-61
2023/12/31 05:24:36;;;;;;;4.10;2.40;;;7.50;69.00;;;9.19;53.43;96662.75;5033932;28;20045;-61
2023/12/31 05:27:03;;;;;;;3.53;2.10;;;7.40;69.30;;;9.13;53.37;96666.13;5034063;28;20049;-61
2023/12/31 05:29:31;;;;;;;3.87;2.27;;;7.40;69.10;;;9.12;53.22;96656.53;5033864;28;20045;-61
2023/12/31 05:31:58;;;;;;;4.47;2.63;;;7.40;68.80;;;9.09;52.74;96652.38;5034286;28;20045;-61
2023/12/31 05:34:26;;;;;;;3.33;2.20;;;7.40;69.20;;;9.08;53.34;96648.09;5034053;28;20048;-61
2023/12/31 05:36:54;;;;;;;3.23;2.00;;;7.30;69.70;;;9.10;53.32;96647.91;5032674;28;20052;-60
2023/12/31 05:39:21;;;;;;;4.43;2.10;;;7.30;69.80;;;9.06;53.32;96637.63;5032332;28;20049;-61
2023/12/31 05:41:49;;;;;;;3.70;2.67;;;7.30;69.90;;;9.05;53.06;96629.84;5033472;28;20497;-61
2023/12/31 05:44:16;;;;;;;5.47;2.90;;;7.30;69.60;;;9.06;53.34;96640.28;5033720;28;20046;-61
2023/12/31 05:46:44;;;;;;;2.83;2.50;;;7.30;70.10;;;9.04;53.17;96629.03;5033793;28;20038;-61
2023/12/31 05:49:12;;;;;;;5.17;3.30;;;7.20;69.90;;;8.99;53.16;96636.69;5033345;28;20386;-61
2023/12/31 05:51:39;;;;;;;3.03;2.43;;;7.20;69.50;;;8.96;53.21;96629.09;5033105;28;20052;-61
2023/12/31 05:54:07;;;;;;;3.57;2.47;;;7.10;69.90;;;8.94;53.23;96630.28;5033176;28;20060;-60
2023/12/31 05:56:34;;;;;;;3.90;2.47;;;7.00;70.50;;;8.91;53.34;96628.78;5033384;28;20060;-61
2023/12/31 05:59:02;;;;;;;3.23;2.33;;;7.10;70.60;;;8.93;53.23;96633.91;5031820;28;20053;-61
2023/12/31 06:01:30;;;;;;;3.07;2.30;;;7.10;70.30;;;8.91;53.24;96634.06;5031843;28;20045;-61
2023/12/31 06:03:57;;;;;;;3.13;2.33;;;7.10;70.40;;;8.89;53.21;96630.78;5032129;28;20386;-60
2023/12/31 06:06:25;;;;;;;3.10;2.27;;;7.10;70.20;;;8.87;53.10;96624.81;5033635;28;20045;-61
2023/12/31 06:08:54;;;;;;;3.23;2.23;;;7.10;69.30;;;8.84;53.25;96633.13;5033105;28;20386;-61
2023/12/31 06:11:21;;;;;;;4.40;2.20;;;7.00;69.50;;;8.81;53.06;96629.00;5033247;28;20046;-61
2023/12/31 06:13:49;;;;;;;4.83;2.40;;;7.00;69.40;;;8.84;53.10;96622.50;5032864;28;20045;-61
2023/12/31 06:16:16;;;;;;;2.90;2.23;;;7.00;69.10;;;8.86;53.11;96609.91;5033082;28;20425;-61
2023/12/31 06:18:44;;;;;;;2.83;2.17;;;7.00;68.70;;;8.87;52.86;96628.28;5032571;28;20068;-61
2023/12/31 06:21:12;;;;;;;3.60;2.17;;;7.10;68.50;;;8.91;52.91;96628.78;5032377;28;20049;-61
2023/12/31 06:23:39;;;;;;;3.30;2.00;;;7.10;67.70;;;8.92;52.76;96632.25;5031395;28;20045;-61
2023/12/31 06:26:07;;;;;;;2.43;2.17;;;7.10;68.00;;;8.95;52.79;96632.72;5031380;28;20570;-61
2023/12/31 06:28:34;;;;;;;3.83;2.10;;;7.20;67.80;;;8.95;52.50;96634.56;5031530;28;20416;-61
2023/12/31 06:31:02;;;;;;;3.20;2.10;;;7.20;67.30;;;8.98;52.49;96629.72;5032965;28;20152;-61
2023/12/31 06:33:30;;;;;;;3.80;1.93;;;7.30;67.70;;;9.03;52.12;96626.53;5032894;28;20057;-61
2023/12/31 06:35:59;;;;;;;2.40;1.70;;;7.30;66.80;;;9.06;52.27;96624.34;5032672;28;20072;-61
2023/12/31 06:38:27;;;;;;;2.93;1.73;;;7.30;67.10;;;9.13;52.13;96629.81;5031493;28;20425;-61
2023/12/31 06:40:54;;;;;;;5.03;2.40;;;7.40;66.90;;;9.17;52.22;96623.13;5032053;28;20048;-61
2023/12/31 06:43:22;;;;;;;3.17;2.40;;;7.40;65.30;;;9.16;51.92;96625.97;5032296;28;20064;-61
2023/12/31 06:45:50;;;;;;;2.77;2.50;;;7.40;66.60;;;9.20;52.09;96614.78;5032622;28;20417;-61
2023/12/31 06:48:17;;;;;;;3.30;2.20;;;7.50;66.90;;;9.20;51.92;96616.63;5032596;28;20516;-61
2023/12/31 06:50:45;;;;;;;6.87;2.73;;;7.40;66.20;;;9.19;51.94;96613.16;5032002;28;20049;-61
2023/12/31 06:53:12;;;;;;;2.80;2.27;;;7.40;67.10;;;9.21;51.83;96610.34;5032109;28;20501;-61
2023/12/31 06:55:40;;;;;;;3.13;2.00;;;7.40;66.10;;;9.21;51.46;96605.84;5032384;28;20052;-61
2023/12/31 06:58:08;;;;;;;2.70;1.60;;;7.50;65.00;;;9.25;50.71;96623.06;5032525;28;20056;-61
2023/12/31 07:00:35;;;;;;;3.73;1.87;;;7.60;61.70;;;9.29;50.58;96610.25;5032480;28;20050;-61
2023/12/31 07:03:03;;;;;;;2.27;1.80;;;7.70;61.10;;;9.33;50.58;96613.41;5032091;28;20063;-61
2023/12/31 07:05:32;;;;;;;2.33;1.70;;;7.70;62.90;;;9.36;50.14;96613.03;5031895;28;20053;-61
2023/12/31 07:07:59;;;;;;;2.77;1.80;;;7.80;62.10;;;9.40;50.24;96614.31;5032231;28;20045;-61
2023/12/31 07:10:27;;;;;;;2.27;1.57;;;7.90;61.40;;;9.42;49.89;96621.13;5030089;28;20060;-61
2023/12/31 07:12:55;;;;;;;2.33;1.60;;;7.90;62.00;;;9.46;49.91;96618.94;5031986;28;20034;-61
2023/12/31 07:15:22;;;;;;;3.37;1.70;;;8.00;62.70;;;9.50;49.71;96612.25;5031808;28;20072;-61
2023/12/31 07:17:50;;;;;;;2.90;1.60;;;8.10;61.80;;;9.55;49.88;96614.34;5032030;28;20052;-61
2023/12/31 07:20:18;;;;;;;3.07;1.87;;;8.10;60.50;;;9.54;49.62;96620.66;5031691;28;20065;-61
2023/12/31 07:22:45;;;;;;;4.37;2.70;;;8.10;60.60;;;9.60;49.39;96619.97;5031500;28;20053;-61
2023/12/31 07:25:13;;;;;;;7.53;4.07;;;8.10;61.00;;;9.66;49.48;96608.63;5031903;28;20047;-61
2023/12/31 07:27:40;;;;;;;3.20;2.10;;;8.20;60.70;;;9.64;49.12;96631.88;5030243;28;20682;-61
2023/12/31 07:30:09;;;;;;;3.50;1.80;;;8.20;60.10;;;9.69;49.10;96623.34;5027803;28;20049;-61
2023/12/31 07:32:36;;;;;;;2.73;1.90;;;8.30;60.70;;;9.71;49.14;96624.00;5030946;28;20412;-61
2023/12/31 07:35:05;;;;;;;3.23;2.13;;;8.30;60.10;;;9.76;48.97;96621.63;5031694;28;20053;-60
2023/12/31 07:37:33;;;;;;;2.10;1.40;;;8.40;59.90;;;9.81;48.89;96620.09;5031628;28;20056;-60
2023/12/31 07:40:00;;;;;;;3.00;1.90;;;8.40;60.30;;;9.82;48.87;96627.03;5031166;28;20045;-60
2023/12/31 07:42:30;;;;;;;3.53;1.70;;;8.30;59.70;;;9.82;48.75;96627.03;5030993;28;20052;-60
2023/12/31 07:44:58;;;;;;;2.37;1.77;;;8.30;59.50;;;9.87;48.67;96631.84;5027762;28;20045;-60
2023/12/31 07:47:26;;;;;;;2.40;1.53;;;8.30;60.50;;;9.92;49.09;96626.78;5030134;28;20045;-61
2023/12/31 07:49:53;;;;;;;3.03;2.73;;;8.30;61.10;;;9.96;49.17;96613.94;5028944;28;20037;-61
2023/12/31 07:52:21;;;;;;;2.63;1.77;;;8.40;61.10;;;10.00;48.77;96617.91;5028919;28;20101;-61
2023/12/31 07:54:48;;;;;;;1.80;1.60;;;8.40;60.60;;;10.01;48.89;96612.41;5028290;28;20056;-61
2023/12/31 07:57:16;;;;;;;2.03;1.50;;;8.40;60.30;;;10.02;48.36;96598.13;5030067;28;20050;-61
2023/12/31 07:59:44;;;;;;;2.33;1.60;;;8.30;59.90;;;10.04;48.78;96584.59;5028317;28;20045;-60
2023/12/31 08:02:11;;;;;;;2.73;1.93;;;8.40;60.20;;;10.02;48.40;96597.25;5029097;28;20056;-60
2023/12/31 08:04:39;;;;;;;2.70;1.70;;;8.50;59.70;;;10.03;48.11;96601.59;5030293;28;20076;-61
2023/12/31 08:07:07;;;;;;;3.53;1.70;;;8.50;59.70;;;10.02;48.50;96602.59;5029993;28;20417;-61
2023/12/31 08:09:34;;;;;;;2.30;1.80;;;8.50;59.80;;;10.00;48.17;96605.44;5029686;28;20048;-61
2023/12/31 08:12:02;;;;;;;2.93;1.83;;;8.50;59.30;;;10.00;48.26;96594.81;5029941;28;20056;-60
2023/12/31 08:14:30;;;;;;;3.50;2.73;;;8.50;59.30;;;10.02;48.34;96594.59;5030443;28;20075;-62
2023/12/31 08:16:57;;;;;;;4.80;2.60;;;8.60;59.20;;;10.01;48.14;96593.78;5029010;28;20524;-61
2023/12/31 08:19:25;;;;;;;2.93;2.00;;;8.60;59.10;;;10.03;48.16;96599.75;5029731;28;20425;-60
2023/12/31 08:21:53;;;;;;;4.03;2.00;;;8.60;59.10;;;10.06;48.05;96598.53;5029668;28;20054;-60
2023/12/31 08:24:21;;;;;;;3.37;2.30;;;8.60;58.80;;;10.08;47.83;96603.69;5029532;28;20080;-60
2023/12/31 08:26:51;;;;;;;2.67;1.80;;;8.60;57.90;;;10.09;47.68;96598.19;5030007;28;20437;-61
2023/12/31 08:29:18;;;;;;;3.43;1.90;;;8.60;57.70;;;10.05;47.39;96592.41;5028319;28;20421;-61
2023/12/31 08:31:50;;;;;;;2.13;1.50;;;8.60;57.90;;;10.06;47.35;96571.94;5029947;28;20050;-61
2023/12/31 08:34:19;;;;;;;3.07;1.93;;;8.60;56.70;;;10.05;47.00;96580.94;5029357;28;20050;-61
2023/12/31 08:36:47;;;;;;;2.63;1.90;;;8.60;57.20;;;10.07;47.04;96580.78;5028783;28;20068;-61
2023/12/31 08:39:15;;;;;;;2.20;1.80;;;8.60;57.40;;;10.11;47.01;96582.88;5027942;28;20072;-61
2023/12/31 08:41:43;;;;;;;2.63;1.70;;;8.70;57.30;;;10.14;46.95;96576.34;5029898;28;20045;-61
2023/12/31 08:44:11;;;;;;;2.53;1.70;;;8.70;55.70;;;10.16;46.32;96577.03;5030821;28;20041;-61
2023/12/31 08:46:38;;;;;;;2.10;1.70;;;8.80;55.90;;;10.20;46.32;96587.09;5033791;28;20420;-61
2023/12/31 08:49:07;;;;;;;4.37;2.17;;;8.80;56.40;;;10.23;46.31;96573.41;5033628;28;20417;-61
2023/12/31 08:51:34;;;;;;;3.03;1.80;;;8.90;56.30;;;10.27;46.66;96573.06;5033330;28;20041;-60
2023/12/31 08:54:02;;;;;;;2.03;1.30;;;8.80;54.70;;;10.29;46.11;96568.38;5033704;28;20520;-60
2023/12/31 08:56:30;;;;;;;3.30;2.23;;;8.80;56.30;;;10.31;46.34;96569.84;5033878;28;20061;-61
2023/12/31 08:58:57;;;;;;;2.60;1.50;;;8.90;55.80;;;10.36;46.20;96562.16;5032308;28;20572;-61
2023/12/31 09:01:25;;;;;;;1.53;1.33;;;9.00;56.00;;;10.41;46.37;96561.59;5038843;28;20037;-61
2023/12/31 09:03:53;;;;;;;1.80;1.30;;;9.00;56.00;;;10.41;45.69;96553.59;5042395;28;20551;-61
2023/12/31 09:06:20;;;;;;;2.23;1.70;;;9.00;55.80;;;10.42;46.06;96548.09;5041317;28;20041;-61
2023/12/31 09:08:48;;;;;;;2.73;1.50;;;9.10;55.90;;;10.44;46.16;96556.72;5039819;28;20480;-61
2023/12/31 09:11:16;;;;;;;2.50;1.60;;;9.10;55.60;;;10.49;46.38;96558.84;5041107;28;20037;-61
2023/12/31 09:13:45;;;;;;;2.37;1.50;;;9.20;55.80;;;10.51;46.13;96546.16;5041022;28;20052;-61
2023/12/31 09:16:13;;;;;;;1.80;1.30;;;9.20;56.00;;;10.54;45.71;96551.09;5043343;28;20203;-61
2023/12/31 09:18:41;;;;;;;2.07;1.40;;;9.20;55.70;;;10.56;45.81;96542.94;5032105;28;20045;-61
2023/12/31 09:21:09;;;;;;;2.27;1.53;;;9.20;55.20;;;10.62;45.66;96545.69;5032957;28;20527;-61
2023/12/31 09:23:36;;;;;;;2.10;1.43;;;9.20;55.10;;;10.66;45.67;96539.97;5033217;28;20049;-60
2023/12/31 09:26:04;;;;;;;2.70;1.57;;;9.30;53.80;;;10.68;45.48;96553.91;5031988;28;20047;-61
2023/12/31 09:28:31;;;;;;;1.60;1.30;;;9.30;54.50;;;10.69;45.10;96539.59;5033269;28;20048;-60
2023/12/31 09:30:59;;;;;;;1.37;1.20;;;9.30;54.30;;;10.73;45.17;96540.88;5031145;28;20049;-60
2023/12/31 09:33:27;;;;;;;1.70;1.20;;;9.30;54.40;;;10.78;44.90;96547.28;5033003;28;20045;-60
2023/12/31 09:35:54;;;;;;;1.47;1.20;;;9.40;54.30;;;10.81;44.76;96540.75;5032736;28;20045;-60
2023/12/31 09:38:22;;;;;;;3.10;1.47;;;9.40;53.80;;;10.83;44.82;96542.19;5033103;28;20049;-60
2023/12/31 09:40:51;;;;;;;1.93;1.03;;;9.50;53.40;;;10.88;44.40;96540.81;5031122;28;20501;-60
2023/12/31 09:43:20;;;;;;;2.70;1.40;;;9.50;53.40;;;10.92;44.39;96553.56;5033195;28;20041;-60
2023/12/31 09:45:49;;;;;;;1.73;1.40;;;9.50;53.20;;;10.93;44.23;96539.22;5033621;28;20045;-60
2023/12/31 09:48:17;;;;;;;1.07;0.90;;;9.50;52.30;;;10.97;43.94;96535.19;5033747;28;20416;-61
2023/12/31 09:50:44;;;;;;;1.30;1.20;;;9.60;52.80;;;10.97;43.98;96526.34;5032070;28;20413;-60
2023/12/31 09:53:17;;;;;;;1.50;1.20;;;9.60;52.30;;;11.03;44.25;96521.09;5033395;28;20520;-60
2023/12/31 09:55:45;;;;;;;1.10;1.00;;;9.70;52.20;;;11.09;43.67;96514.19;5031744;28;20045;-56
2023/12/31 09:58:15;;;;;;;2.77;1.33;;;9.70;52.30;;;11.13;43.81;96518.09;5032442;28;20045;-58
2023/12/31 10:00:43;;;;;;;2.33;1.50;;;9.80;52.10;;;11.16;43.70;96503.56;5031690;28;20057;-56
2023/12/31 10:03:12;;;;;;;4.03;1.33;;;9.80;52.00;;;11.19;43.48;96497.88;5032051;28;20048;-57
2023/12/31 10:05:42;;;;;;;1.67;1.00;;;9.90;51.40;;;11.21;43.55;96483.31;5033561;28;20037;-57
2023/12/31 10:08:10;;;;;;;2.10;1.23;;;9.90;51.50;;;11.22;43.07;96454.84;5024256;28;20045;-57
2023/12/31 10:10:39;;;;;;;1.60;1.07;;;9.90;51.40;;;11.25;43.26;96458.97;5031629;28;20045;-59
2023/12/31 10:13:15;;;;;;;2.47;1.20;;;9.90;52.20;;;11.28;43.82;96456.72;5015621;28;20053;-60
2023/12/31 10:15:45;;;;;;;1.83;1.30;;;10.00;51.90;;;11.33;43.81;96445.50;5032969;28;20289;-59
2023/12/31 10:18:12;;;;;;;1.50;1.10;;;10.10;52.20;;;11.37;43.64;96438.75;5025837;28;20109;-60
2023/12/31 10:20:40;;;;;;;2.57;1.07;;;10.10;51.70;;;11.37;43.55;96433.41;5032830;28;20515;-59
2023/12/31 10:23:08;;;;;;;2.30;1.17;;;10.10;52.10;;;11.40;43.23;96438.38;5032579;28;20490;-60
2023/12/31 10:25:36;;;;;;;1.60;1.27;;;10.10;51.60;;;11.42;43.37;96437.16;5033095;28;20042;-59
2023/12/31 10:28:04;;;;;;;1.87;1.17;;;10.10;52.10;;;11.46;43.59;96437.59;5031787;28;20042;-59
2023/12/31 10:30:32;;;;;;;1.90;1.23;;;10.10;52.20;;;11.52;43.62;96436.78;5032765;28;20409;-59
2023/12/31 10:33:12;;;;;;;1.30;1.13;;;10.20;52.20;;;11.56;43.17;96434.56;5032195;28;20464;-60